sensor_id;sensor_type;location;lat;lon;timestamp;P1;durP1;ratioP1;P2;durP2;ratioP2
13693;SDS011;6919;52.344;14.518;2023-11-21T00:00:08;10.30;;;6.33;;
13693;SDS011;6919;52.344;14.518;2023-11-21T00:02:38;12.17;;;6.77;;
13693;SDS011;6919;52.344;14.518;2023-11-21T00:05:07;10.60;;;6.37;;
13693;SDS011;6919;52.344;14.518;2023-11-21T00:07:38;10.27;;;5.77;;
13693;SDS011;6919;52.344;14.518;2023-11-21T00:10:08;11.53;;;6.00;;
13693;SDS011;6919;52.344;14.518;2023-11-21T00:12:38;6.40;;;4.20;;
13693;SDS011;6919;52.344;14.518;2023-11-21T00:15:08;6.13;;;3.10;;
13693;SDS011;6919;52.344;14.518;2023-11-21T00:17:38;5.57;;;3.67;;
13693;SDS011;6919;52.344;14.518;2023-11-21T00:20:08;4.33;;;3.13;;
13693;SDS011;6919;52.344;14.518;2023-11-21T00:22:41;8.23;;;4.27;;
13693;SDS011;6919;52.344;14.518;2023-11-21T00:25:10;6.23;;;4.47;;
13693;SDS011;6919;52.344;14.518;2023-11-21T00:27:41;7.13;;;4.47;;
13693;SDS011;6919;52.344;14.518;2023-11-21T00:30:11;7.77;;;5.07;;
13693;SDS011;6919;52.344;14.518;2023-11-21T00:32:40;9.00;;;5.53;;
13693;SDS011;6919;52.344;14.518;2023-11-21T00:35:09;10.93;;;6.47;;
13693;SDS011;6919;52.344;14.518;2023-11-21T00:37:38;10.50;;;5.73;;
13693;SDS011;6919;52.344;14.518;2023-11-21T00:40:09;10.13;;;6.73;;
13693;SDS011;6919;52.344;14.518;2023-11-21T00:42:41;13.40;;;6.90;;
13693;SDS011;6919;52.344;14.518;2023-11-21T00:45:10;11.97;;;6.37;;
13693;SDS011;6919;52.344;14.518;2023-11-21T00:47:39;8.40;;;6.23;;
13693;SDS011;6919;52.344;14.518;2023-11-21T00:50:07;8.57;;;6.43;;
13693;SDS011;6919;52.344;14.518;2023-11-21T00:52:36;11.13;;;7.30;;
13693;SDS011;6919;52.344;14.518;2023-11-21T00:55:07;9.67;;;6.70;;
13693;SDS011;6919;52.344;14.518;2023-11-21T00:57:36;14.90;;;6.57;;
13693;SDS011;6919;52.344;14.518;2023-11-21T01:00:05;10.67;;;7.00;;
13693;SDS011;6919;52.344;14.518;2023-11-21T01:02:39;11.37;;;7.07;;
13693;SDS011;6919;52.344;14.518;2023-11-21T01:05:09;8.17;;;6.53;;
13693;SDS011;6919;52.344;14.518;2023-11-21T01:07:38;15.60;;;7.60;;
13693;SDS011;6919;52.344;14.518;2023-11-21T01:10:08;11.30;;;7.00;;
13693;SDS011;6919;52.344;14.518;2023-11-21T01:12:37;14.63;;;7.20;;
13693;SDS011;6919;52.344;14.518;2023-11-21T01:15:06;12.33;;;8.00;;
13693;SDS011;6919;52.344;14.518;2023-11-21T01:17:35;10.90;;;6.70;;
13693;SDS011;6919;52.344;14.518;2023-11-21T01:20:05;10.00;;;6.47;;
13693;SDS011;6919;52.344;14.518;2023-11-21T01:22:39;8.07;;;5.77;;
13693;SDS011;6919;52.344;14.518;2023-11-21T01:25:11;8.17;;;5.53;;
13693;SDS011;6919;52.344;14.518;2023-11-21T01:27:40;7.33;;;5.27;;
13693;SDS011;6919;52.344;14.518;2023-11-21T01:30:09;8.33;;;6.10;;
13693;SDS011;6919;52.344;14.518;2023-11-21T01:32:39;10.53;;;6.80;;
13693;SDS011;6919;52.344;14.518;2023-11-21T01:35:10;12.10;;;7.80;;
13693;SDS011;6919;52.344;14.518;2023-11-21T01:37:39;10.67;;;7.47;;
13693;SDS011;6919;52.344;14.518;2023-11-21T01:40:09;17.63;;;7.50;;
13693;SDS011;6919;52.344;14.518;2023-11-21T01:42:41;10.43;;;7.80;;
13693;SDS011;6919;52.344;14.518;2023-11-21T01:45:11;18.33;;;7.73;;
13693;SDS011;6919;52.344;14.518;2023-11-21T01:47:41;12.30;;;7.67;;
13693;SDS011;6919;52.344;14.518;2023-11-21T01:50:13;11.50;;;8.97;;
13693;SDS011;6919;52.344;14.518;2023-11-21T01:52:45;10.83;;;8.17;;
13693;SDS011;6919;52.344;14.518;2023-11-21T01:55:17;11.27;;;7.43;;
13693;SDS011;6919;52.344;14.518;2023-11-21T01:57:49;14.07;;;8.03;;
13693;SDS011;6919;52.344;14.518;2023-11-21T02:00:18;11.20;;;7.87;;
13693;SDS011;6919;52.344;14.518;2023-11-21T02:02:46;16.40;;;8.77;;
13693;SDS011;6919;52.344;14.518;2023-11-21T02:05:16;12.47;;;7.97;;
13693;SDS011;6919;52.344;14.518;2023-11-21T02:07:47;12.50;;;8.63;;
13693;SDS011;6919;52.344;14.518;2023-11-21T02:10:20;15.33;;;9.17;;
13693;SDS011;6919;52.344;14.518;2023-11-21T02:12:50;12.53;;;8.80;;
13693;SDS011;6919;52.344;14.518;2023-11-21T02:15:19;14.63;;;9.63;;
13693;SDS011;6919;52.344;14.518;2023-11-21T02:17:48;15.30;;;9.67;;
13693;SDS011;6919;52.344;14.518;2023-11-21T02:20:19;16.00;;;10.50;;
13693;SDS011;6919;52.344;14.518;2023-11-21T02:22:53;17.63;;;10.57;;
13693;SDS011;6919;52.344;14.518;2023-11-21T02:25:25;25.13;;;9.90;;
13693;SDS011;6919;52.344;14.518;2023-11-21T02:27:55;14.80;;;9.53;;
13693;SDS011;6919;52.344;14.518;2023-11-21T02:30:25;14.33;;;9.00;;
13693;SDS011;6919;52.344;14.518;2023-11-21T02:32:55;12.87;;;8.33;;
13693;SDS011;6919;52.344;14.518;2023-11-21T02:35:24;13.17;;;8.63;;
13693;SDS011;6919;52.344;14.518;2023-11-21T02:37:54;12.97;;;8.53;;
13693;SDS011;6919;52.344;14.518;2023-11-21T02:40:23;12.80;;;8.60;;
13693;SDS011;6919;52.344;14.518;2023-11-21T02:42:53;13.50;;;9.20;;
13693;SDS011;6919;52.344;14.518;2023-11-21T02:45:24;13.20;;;9.10;;
13693;SDS011;6919;52.344;14.518;2023-11-21T02:47:52;13.00;;;8.70;;
13693;SDS011;6919;52.344;14.518;2023-11-21T02:50:25;18.20;;;9.90;;
13693;SDS011;6919;52.344;14.518;2023-11-21T02:52:55;15.40;;;9.80;;
13693;SDS011;6919;52.344;14.518;2023-11-21T02:55:27;13.80;;;9.73;;
13693;SDS011;6919;52.344;14.518;2023-11-21T02:57:55;16.27;;;10.00;;
13693;SDS011;6919;52.344;14.518;2023-11-21T03:00:24;12.27;;;8.87;;
13693;SDS011;6919;52.344;14.518;2023-11-21T03:02:52;14.17;;;9.27;;
13693;SDS011;6919;52.344;14.518;2023-11-21T03:05:22;14.40;;;9.20;;
13693;SDS011;6919;52.344;14.518;2023-11-21T03:07:51;18.13;;;10.37;;
13693;SDS011;6919;52.344;14.518;2023-11-21T03:10:21;15.37;;;8.87;;
13693;SDS011;6919;52.344;14.518;2023-11-21T03:12:50;16.67;;;9.33;;
13693;SDS011;6919;52.344;14.518;2023-11-21T03:15:19;13.87;;;9.83;;
13693;SDS011;6919;52.344;14.518;2023-11-21T03:17:47;19.53;;;10.27;;
13693;SDS011;6919;52.344;14.518;2023-11-21T03:20:17;13.43;;;8.67;;
13693;SDS011;6919;52.344;14.518;2023-11-21T03:22:45;12.57;;;9.53;;
13693;SDS011;6919;52.344;14.518;2023-11-21T03:25:14;13.00;;;9.63;;
13693;SDS011;6919;52.344;14.518;2023-11-21T03:27:45;16.57;;;10.07;;
13693;SDS011;6919;52.344;14.518;2023-11-21T03:30:13;12.73;;;9.00;;
13693;SDS011;6919;52.344;14.518;2023-11-21T03:32:43;18.10;;;10.13;;
13693;SDS011;6919;52.344;14.518;2023-11-21T03:35:11;16.30;;;9.70;;
13693;SDS011;6919;52.344;14.518;2023-11-21T03:37:39;15.33;;;10.03;;
13693;SDS011;6919;52.344;14.518;2023-11-21T03:40:09;18.00;;;10.33;;
13693;SDS011;6919;52.344;14.518;2023-11-21T03:42:39;15.63;;;9.33;;
13693;SDS011;6919;52.344;14.518;2023-11-21T03:45:09;16.23;;;10.03;;
13693;SDS011;6919;52.344;14.518;2023-11-21T03:47:39;15.80;;;10.53;;
13693;SDS011;6919;52.344;14.518;2023-11-21T03:50:08;16.47;;;10.77;;
13693;SDS011;6919;52.344;14.518;2023-11-21T03:52:37;20.33;;;10.07;;
13693;SDS011;6919;52.344;14.518;2023-11-21T03:55:06;19.60;;;10.63;;
13693;SDS011;6919;52.344;14.518;2023-11-21T03:57:35;16.83;;;9.93;;
13693;SDS011;6919;52.344;14.518;2023-11-21T04:00:03;16.97;;;10.60;;
13693;SDS011;6919;52.344;14.518;2023-11-21T04:02:37;16.07;;;10.10;;
13693;SDS011;6919;52.344;14.518;2023-11-21T04:05:06;15.57;;;10.30;;
13693;SDS011;6919;52.344;14.518;2023-11-21T04:07:36;15.80;;;10.63;;
13693;SDS011;6919;52.344;14.518;2023-11-21T04:10:06;18.33;;;11.17;;
13693;SDS011;6919;52.344;14.518;2023-11-21T04:12:39;19.57;;;11.57;;
13693;SDS011;6919;52.344;14.518;2023-11-21T04:15:08;18.83;;;11.67;;
13693;SDS011;6919;52.344;14.518;2023-11-21T04:17:40;19.70;;;12.33;;
13693;SDS011;6919;52.344;14.518;2023-11-21T04:20:09;21.47;;;11.93;;
13693;SDS011;6919;52.344;14.518;2023-11-21T04:22:38;18.13;;;11.47;;
13693;SDS011;6919;52.344;14.518;2023-11-21T04:25:10;17.73;;;11.63;;
13693;SDS011;6919;52.344;14.518;2023-11-21T04:27:42;19.37;;;12.73;;
13693;SDS011;6919;52.344;14.518;2023-11-21T04:30:11;19.33;;;12.90;;
13693;SDS011;6919;52.344;14.518;2023-11-21T04:32:42;24.77;;;13.17;;
13693;SDS011;6919;52.344;14.518;2023-11-21T04:35:11;26.80;;;14.37;;
13693;SDS011;6919;52.344;14.518;2023-11-21T04:37:39;22.47;;;13.90;;
13693;SDS011;6919;52.344;14.518;2023-11-21T04:40:08;25.47;;;15.20;;
13693;SDS011;6919;52.344;14.518;2023-11-21T04:42:37;24.07;;;14.90;;
13693;SDS011;6919;52.344;14.518;2023-11-21T04:45:07;27.47;;;14.70;;
13693;SDS011;6919;52.344;14.518;2023-11-21T04:47:38;26.90;;;14.17;;
13693;SDS011;6919;52.344;14.518;2023-11-21T04:50:08;29.90;;;15.27;;
13693;SDS011;6919;52.344;14.518;2023-11-21T04:52:37;24.00;;;13.67;;
13693;SDS011;6919;52.344;14.518;2023-11-21T04:55:06;23.87;;;14.03;;
13693;SDS011;6919;52.344;14.518;2023-11-21T04:57:36;23.23;;;14.23;;
13693;SDS011;6919;52.344;14.518;2023-11-21T05:00:05;26.40;;;14.73;;
13693;SDS011;6919;52.344;14.518;2023-11-21T05:02:35;23.23;;;13.57;;
13693;SDS011;6919;52.344;14.518;2023-11-21T05:05:05;23.73;;;12.60;;
13693;SDS011;6919;52.344;14.518;2023-11-21T05:07:36;24.27;;;13.97;;
13693;SDS011;6919;52.344;14.518;2023-11-21T05:10:07;24.70;;;13.40;;
13693;SDS011;6919;52.344;14.518;2023-11-21T05:12:39;26.00;;;15.37;;
13693;SDS011;6919;52.344;14.518;2023-11-21T05:15:09;26.87;;;14.10;;
13693;SDS011;6919;52.344;14.518;2023-11-21T05:17:41;25.67;;;13.97;;
13693;SDS011;6919;52.344;14.518;2023-11-21T05:20:14;21.97;;;13.83;;
13693;SDS011;6919;52.344;14.518;2023-11-21T05:22:47;28.10;;;15.00;;
13693;SDS011;6919;52.344;14.518;2023-11-21T05:25:15;30.13;;;14.50;;
13693;SDS011;6919;52.344;14.518;2023-11-21T05:27:45;20.07;;;12.90;;
13693;SDS011;6919;52.344;14.518;2023-11-21T05:30:14;22.10;;;14.07;;
13693;SDS011;6919;52.344;14.518;2023-11-21T05:32:42;21.00;;;14.03;;
13693;SDS011;6919;52.344;14.518;2023-11-21T05:35:10;22.07;;;13.00;;
13693;SDS011;6919;52.344;14.518;2023-11-21T05:37:43;21.60;;;13.67;;
13693;SDS011;6919;52.344;14.518;2023-11-21T05:40:12;26.07;;;13.87;;
13693;SDS011;6919;52.344;14.518;2023-11-21T05:42:41;19.47;;;12.57;;
13693;SDS011;6919;52.344;14.518;2023-11-21T05:45:09;20.13;;;12.83;;
13693;SDS011;6919;52.344;14.518;2023-11-21T05:47:39;21.13;;;12.63;;
13693;SDS011;6919;52.344;14.518;2023-11-21T05:50:10;18.37;;;11.27;;
13693;SDS011;6919;52.344;14.518;2023-11-21T05:52:43;14.97;;;10.87;;
13693;SDS011;6919;52.344;14.518;2023-11-21T05:55:14;16.27;;;11.20;;
13693;SDS011;6919;52.344;14.518;2023-11-21T05:57:43;15.63;;;11.03;;
13693;SDS011;6919;52.344;14.518;2023-11-21T06:00:12;14.13;;;9.30;;
13693;SDS011;6919;52.344;14.518;2023-11-21T06:02:47;13.00;;;9.03;;
13693;SDS011;6919;52.344;14.518;2023-11-21T06:05:17;12.20;;;8.73;;
13693;SDS011;6919;52.344;14.518;2023-11-21T06:07:48;13.00;;;8.67;;
13693;SDS011;6919;52.344;14.518;2023-11-21T06:10:17;15.97;;;9.80;;
13693;SDS011;6919;52.344;14.518;2023-11-21T06:12:47;13.23;;;8.53;;
13693;SDS011;6919;52.344;14.518;2023-11-21T06:15:15;12.83;;;9.03;;
13693;SDS011;6919;52.344;14.518;2023-11-21T06:17:45;15.93;;;9.13;;
13693;SDS011;6919;52.344;14.518;2023-11-21T06:20:19;15.83;;;9.17;;
13693;SDS011;6919;52.344;14.518;2023-11-21T06:22:51;15.77;;;8.87;;
13693;SDS011;6919;52.344;14.518;2023-11-21T06:25:20;15.33;;;8.83;;
13693;SDS011;6919;52.344;14.518;2023-11-21T06:27:48;15.13;;;8.63;;
13693;SDS011;6919;52.344;14.518;2023-11-21T06:30:18;12.70;;;8.10;;
13693;SDS011;6919;52.344;14.518;2023-11-21T06:32:47;12.00;;;7.53;;
13693;SDS011;6919;52.344;14.518;2023-11-21T06:35:16;11.67;;;8.40;;
13693;SDS011;6919;52.344;14.518;2023-11-21T06:37:46;12.73;;;7.57;;
13693;SDS011;6919;52.344;14.518;2023-11-21T06:40:18;13.20;;;8.10;;
13693;SDS011;6919;52.344;14.518;2023-11-21T06:42:47;11.90;;;7.57;;
13693;SDS011;6919;52.344;14.518;2023-11-21T06:45:16;10.93;;;7.40;;
13693;SDS011;6919;52.344;14.518;2023-11-21T06:47:44;11.90;;;6.57;;
13693;SDS011;6919;52.344;14.518;2023-11-21T06:50:13;10.23;;;6.90;;
13693;SDS011;6919;52.344;14.518;2023-11-21T06:52:42;10.13;;;7.20;;
13693;SDS011;6919;52.344;14.518;2023-11-21T06:55:10;9.20;;;6.43;;
13693;SDS011;6919;52.344;14.518;2023-11-21T06:57:40;9.83;;;6.13;;
13693;SDS011;6919;52.344;14.518;2023-11-21T07:00:09;12.87;;;6.83;;
13693;SDS011;6919;52.344;14.518;2023-11-21T07:02:39;10.90;;;7.00;;
13693;SDS011;6919;52.344;14.518;2023-11-21T07:05:07;11.47;;;5.63;;
13693;SDS011;6919;52.344;14.518;2023-11-21T07:07:36;10.70;;;6.83;;
13693;SDS011;6919;52.344;14.518;2023-11-21T07:10:05;12.47;;;7.00;;
13693;SDS011;6919;52.344;14.518;2023-11-21T07:12:35;12.97;;;7.40;;
13693;SDS011;6919;52.344;14.518;2023-11-21T07:15:05;12.13;;;6.70;;
13693;SDS011;6919;52.344;14.518;2023-11-21T07:17:36;14.87;;;6.37;;
13693;SDS011;6919;52.344;14.518;2023-11-21T07:20:07;12.40;;;6.57;;
13693;SDS011;6919;52.344;14.518;2023-11-21T07:22:37;10.43;;;6.27;;
13693;SDS011;6919;52.344;14.518;2023-11-21T07:25:06;10.00;;;5.77;;
13693;SDS011;6919;52.344;14.518;2023-11-21T07:27:36;9.67;;;5.60;;
13693;SDS011;6919;52.344;14.518;2023-11-21T07:30:06;8.67;;;5.63;;
13693;SDS011;6919;52.344;14.518;2023-11-21T07:32:36;9.17;;;5.57;;
13693;SDS011;6919;52.344;14.518;2023-11-21T07:35:06;9.60;;;5.93;;
13693;SDS011;6919;52.344;14.518;2023-11-21T07:37:36;9.57;;;5.50;;
13693;SDS011;6919;52.344;14.518;2023-11-21T07:40:05;7.77;;;5.33;;
13693;SDS011;6919;52.344;14.518;2023-11-21T07:42:36;9.00;;;5.43;;
13693;SDS011;6919;52.344;14.518;2023-11-21T07:45:06;5.67;;;4.60;;
13693;SDS011;6919;52.344;14.518;2023-11-21T07:47:36;7.93;;;5.07;;
13693;SDS011;6919;52.344;14.518;2023-11-21T07:50:06;8.67;;;5.53;;
13693;SDS011;6919;52.344;14.518;2023-11-21T07:52:36;12.03;;;6.17;;
13693;SDS011;6919;52.344;14.518;2023-11-21T07:55:04;12.20;;;4.90;;
13693;SDS011;6919;52.344;14.518;2023-11-21T07:57:34;11.37;;;4.70;;
13693;SDS011;6919;52.344;14.518;2023-11-21T08:00:02;13.50;;;5.50;;
13693;SDS011;6919;52.344;14.518;2023-11-21T08:02:35;10.20;;;5.03;;
13693;SDS011;6919;52.344;14.518;2023-11-21T08:05:04;12.77;;;5.53;;
13693;SDS011;6919;52.344;14.518;2023-11-21T08:07:36;10.57;;;5.23;;
13693;SDS011;6919;52.344;14.518;2023-11-21T08:10:05;8.50;;;5.13;;
13693;SDS011;6919;52.344;14.518;2023-11-21T08:12:36;6.77;;;4.73;;
13693;SDS011;6919;52.344;14.518;2023-11-21T08:15:07;9.43;;;5.03;;
13693;SDS011;6919;52.344;14.518;2023-11-21T08:17:36;6.07;;;4.27;;
13693;SDS011;6919;52.344;14.518;2023-11-21T08:20:05;6.47;;;4.50;;
13693;SDS011;6919;52.344;14.518;2023-11-21T08:22:37;6.37;;;3.80;;
13693;SDS011;6919;52.344;14.518;2023-11-21T08:25:07;6.23;;;3.93;;
13693;SDS011;6919;52.344;14.518;2023-11-21T08:27:36;4.40;;;3.53;;
13693;SDS011;6919;52.344;14.518;2023-11-21T08:30:06;6.33;;;4.20;;
13693;SDS011;6919;52.344;14.518;2023-11-21T08:32:36;7.53;;;4.13;;
13693;SDS011;6919;52.344;14.518;2023-11-21T08:35:04;5.57;;;3.70;;
13693;SDS011;6919;52.344;14.518;2023-11-21T08:37:33;7.10;;;3.87;;
13693;SDS011;6919;52.344;14.518;2023-11-21T08:40:03;7.70;;;3.70;;
13693;SDS011;6919;52.344;14.518;2023-11-21T08:42:35;5.90;;;3.80;;
13693;SDS011;6919;52.344;14.518;2023-11-21T08:45:04;7.33;;;4.00;;
13693;SDS011;6919;52.344;14.518;2023-11-21T08:47:35;7.03;;;4.07;;
13693;SDS011;6919;52.344;14.518;2023-11-21T08:50:04;6.40;;;3.20;;
13693;SDS011;6919;52.344;14.518;2023-11-21T08:52:34;5.80;;;3.57;;
13693;SDS011;6919;52.344;14.518;2023-11-21T08:55:04;8.93;;;4.07;;
13693;SDS011;6919;52.344;14.518;2023-11-21T08:57:34;5.60;;;3.60;;
13693;SDS011;6919;52.344;14.518;2023-11-21T09:00:03;7.40;;;4.00;;
13693;SDS011;6919;52.344;14.518;2023-11-21T09:02:39;4.67;;;3.70;;
13693;SDS011;6919;52.344;14.518;2023-11-21T09:05:08;4.97;;;3.80;;
13693;SDS011;6919;52.344;14.518;2023-11-21T09:07:38;9.80;;;4.10;;
13693;SDS011;6919;52.344;14.518;2023-11-21T09:10:08;4.47;;;3.17;;
13693;SDS011;6919;52.344;14.518;2023-11-21T09:12:37;8.00;;;3.73;;
13693;SDS011;6919;52.344;14.518;2023-11-21T09:15:06;8.83;;;4.07;;
13693;SDS011;6919;52.344;14.518;2023-11-21T09:17:39;6.20;;;3.63;;
13693;SDS011;6919;52.344;14.518;2023-11-21T09:20:08;10.27;;;3.97;;
13693;SDS011;6919;52.344;14.518;2023-11-21T09:22:37;7.00;;;3.90;;
13693;SDS011;6919;52.344;14.518;2023-11-21T09:25:07;8.63;;;4.17;;
13693;SDS011;6919;52.344;14.518;2023-11-21T09:27:36;4.70;;;3.80;;
13693;SDS011;6919;52.344;14.518;2023-11-21T09:30:05;10.53;;;5.10;;
13693;SDS011;6919;52.344;14.518;2023-11-21T09:32:38;9.00;;;5.00;;
13693;SDS011;6919;52.344;14.518;2023-11-21T09:35:08;7.80;;;4.90;;
13693;SDS011;6919;52.344;14.518;2023-11-21T09:37:37;10.43;;;5.20;;
13693;SDS011;6919;52.344;14.518;2023-11-21T09:40:07;9.80;;;5.27;;
13693;SDS011;6919;52.344;14.518;2023-11-21T09:42:43;9.23;;;5.50;;
13693;SDS011;6919;52.344;14.518;2023-11-21T09:45:17;11.43;;;6.03;;
13693;SDS011;6919;52.344;14.518;2023-11-21T09:47:53;11.47;;;5.90;;
13693;SDS011;6919;52.344;14.518;2023-11-21T09:50:23;11.17;;;5.80;;
13693;SDS011;6919;52.344;14.518;2023-11-21T09:52:54;10.40;;;6.10;;
13693;SDS011;6919;52.344;14.518;2023-11-21T09:55:34;10.37;;;7.80;;
13693;SDS011;6919;52.344;14.518;2023-11-21T09:58:05;8.37;;;5.63;;
13693;SDS011;6919;52.344;14.518;2023-11-21T10:00:34;9.77;;;5.63;;
13693;SDS011;6919;52.344;14.518;2023-11-21T10:03:04;8.27;;;5.80;;
13693;SDS011;6919;52.344;14.518;2023-11-21T10:05:33;8.13;;;5.67;;
13693;SDS011;6919;52.344;14.518;2023-11-21T10:08:01;8.77;;;5.87;;
13693;SDS011;6919;52.344;14.518;2023-11-21T10:10:34;14.33;;;6.93;;
13693;SDS011;6919;52.344;14.518;2023-11-21T10:13:05;12.23;;;6.73;;
13693;SDS011;6919;52.344;14.518;2023-11-21T10:15:36;9.10;;;6.70;;
13693;SDS011;6919;52.344;14.518;2023-11-21T10:18:07;8.27;;;5.90;;
13693;SDS011;6919;52.344;14.518;2023-11-21T10:20:36;10.17;;;5.63;;
13693;SDS011;6919;52.344;14.518;2023-11-21T10:23:05;8.63;;;5.63;;
13693;SDS011;6919;52.344;14.518;2023-11-21T10:25:37;9.93;;;6.07;;
13693;SDS011;6919;52.344;14.518;2023-11-21T10:28:06;10.00;;;6.37;;
13693;SDS011;6919;52.344;14.518;2023-11-21T10:30:35;9.40;;;5.63;;
13693;SDS011;6919;52.344;14.518;2023-11-21T10:33:05;10.03;;;6.40;;
13693;SDS011;6919;52.344;14.518;2023-11-21T10:35:38;10.30;;;5.47;;
13693;SDS011;6919;52.344;14.518;2023-11-21T10:38:13;7.30;;;5.57;;
13693;SDS011;6919;52.344;14.518;2023-11-21T10:40:41;7.00;;;5.50;;
13693;SDS011;6919;52.344;14.518;2023-11-21T10:43:13;12.10;;;6.43;;
13693;SDS011;6919;52.344;14.518;2023-11-21T10:45:42;13.80;;;8.00;;
13693;SDS011;6919;52.344;14.518;2023-11-21T10:48:13;8.60;;;5.73;;
13693;SDS011;6919;52.344;14.518;2023-11-21T10:50:43;6.20;;;5.00;;
13693;SDS011;6919;52.344;14.518;2023-11-21T10:53:13;6.93;;;5.83;;
13693;SDS011;6919;52.344;14.518;2023-11-21T10:55:42;6.00;;;5.10;;
13693;SDS011;6919;52.344;14.518;2023-11-21T10:58:12;10.60;;;5.97;;
13693;SDS011;6919;52.344;14.518;2023-11-21T11:00:42;6.20;;;4.77;;
13693;SDS011;6919;52.344;14.518;2023-11-21T11:03:14;5.87;;;4.23;;
13693;SDS011;6919;52.344;14.518;2023-11-21T11:05:44;8.10;;;4.43;;
13693;SDS011;6919;52.344;14.518;2023-11-21T11:08:18;5.80;;;4.40;;
13693;SDS011;6919;52.344;14.518;2023-11-21T11:10:53;12.70;;;4.87;;
13693;SDS011;6919;52.344;14.518;2023-11-21T11:13:24;5.67;;;4.50;;
13693;SDS011;6919;52.344;14.518;2023-11-21T11:15:56;6.87;;;5.60;;
13693;SDS011;6919;52.344;14.518;2023-11-21T11:18:29;8.17;;;5.93;;
13693;SDS011;6919;52.344;14.518;2023-11-21T11:21:00;8.97;;;5.77;;
13693;SDS011;6919;52.344;14.518;2023-11-21T11:23:39;7.07;;;5.37;;
13693;SDS011;6919;52.344;14.518;2023-11-21T11:26:24;8.23;;;5.40;;
13693;SDS011;6919;52.344;14.518;2023-11-21T11:29:02;6.43;;;5.30;;
13693;SDS011;6919;52.344;14.518;2023-11-21T11:31:42;7.30;;;5.33;;
13693;SDS011;6919;52.344;14.518;2023-11-21T11:34:24;8.60;;;5.43;;
13693;SDS011;6919;52.344;14.518;2023-11-21T11:36:59;7.00;;;5.10;;
13693;SDS011;6919;52.344;14.518;2023-11-21T11:39:30;5.30;;;4.13;;
13693;SDS011;6919;52.344;14.518;2023-11-21T11:42:08;6.27;;;4.27;;
13693;SDS011;6919;52.344;14.518;2023-11-21T11:44:46;7.87;;;4.60;;
13693;SDS011;6919;52.344;14.518;2023-11-21T11:47:20;5.00;;;4.43;;
13693;SDS011;6919;52.344;14.518;2023-11-21T11:49:59;5.97;;;4.33;;
13693;SDS011;6919;52.344;14.518;2023-11-21T11:52:35;4.63;;;4.13;;
13693;SDS011;6919;52.344;14.518;2023-11-21T11:55:07;6.40;;;4.03;;
13693;SDS011;6919;52.344;14.518;2023-11-21T11:57:38;7.70;;;3.83;;
13693;SDS011;6919;52.344;14.518;2023-11-21T12:00:14;6.33;;;4.30;;
13693;SDS011;6919;52.344;14.518;2023-11-21T12:02:47;4.57;;;3.70;;
13693;SDS011;6919;52.344;14.518;2023-11-21T12:05:18;5.97;;;3.63;;
13693;SDS011;6919;52.344;14.518;2023-11-21T12:07:49;5.97;;;3.83;;
13693;SDS011;6919;52.344;14.518;2023-11-21T12:10:20;9.77;;;3.47;;
13693;SDS011;6919;52.344;14.518;2023-11-21T12:12:51;5.67;;;3.40;;
13693;SDS011;6919;52.344;14.518;2023-11-21T12:15:22;5.23;;;3.40;;
13693;SDS011;6919;52.344;14.518;2023-11-21T12:17:51;3.13;;;2.63;;
13693;SDS011;6919;52.344;14.518;2023-11-21T12:20:22;4.83;;;2.90;;
13693;SDS011;6919;52.344;14.518;2023-11-21T12:22:52;3.83;;;3.37;;
13693;SDS011;6919;52.344;14.518;2023-11-21T12:25:22;4.67;;;2.87;;
13693;SDS011;6919;52.344;14.518;2023-11-21T12:27:55;3.63;;;2.70;;
13693;SDS011;6919;52.344;14.518;2023-11-21T12:30:24;4.13;;;3.10;;
13693;SDS011;6919;52.344;14.518;2023-11-21T12:32:57;6.30;;;3.00;;
13693;SDS011;6919;52.344;14.518;2023-11-21T12:35:29;4.50;;;2.70;;
13693;SDS011;6919;52.344;14.518;2023-11-21T12:38:00;3.47;;;2.80;;
13693;SDS011;6919;52.344;14.518;2023-11-21T12:40:30;5.13;;;2.70;;
13693;SDS011;6919;52.344;14.518;2023-11-21T12:42:59;4.10;;;2.97;;
13693;SDS011;6919;52.344;14.518;2023-11-21T12:45:30;3.13;;;2.77;;
13693;SDS011;6919;52.344;14.518;2023-11-21T12:48:00;4.17;;;2.63;;
13693;SDS011;6919;52.344;14.518;2023-11-21T12:50:36;6.70;;;3.60;;
13693;SDS011;6919;52.344;14.518;2023-11-21T12:53:06;5.30;;;2.10;;
13693;SDS011;6919;52.344;14.518;2023-11-21T12:55:36;2.40;;;2.00;;
13693;SDS011;6919;52.344;14.518;2023-11-21T12:58:06;2.30;;;1.80;;
13693;SDS011;6919;52.344;14.518;2023-11-21T13:00:38;2.23;;;2.00;;
13693;SDS011;6919;52.344;14.518;2023-11-21T13:03:09;4.33;;;2.20;;
13693;SDS011;6919;52.344;14.518;2023-11-21T13:05:46;4.37;;;2.23;;
13693;SDS011;6919;52.344;14.518;2023-11-21T13:08:19;3.23;;;2.20;;
13693;SDS011;6919;52.344;14.518;2023-11-21T13:10:49;2.70;;;2.20;;
13693;SDS011;6919;52.344;14.518;2023-11-21T13:13:21;3.17;;;2.20;;
13693;SDS011;6919;52.344;14.518;2023-11-21T13:15:51;3.20;;;2.50;;
13693;SDS011;6919;52.344;14.518;2023-11-21T13:18:23;4.57;;;3.27;;
13693;SDS011;6919;52.344;14.518;2023-11-21T13:20:55;6.63;;;3.30;;
13693;SDS011;6919;52.344;14.518;2023-11-21T13:23:24;7.63;;;3.60;;
13693;SDS011;6919;52.344;14.518;2023-11-21T13:25:55;4.63;;;3.07;;
13693;SDS011;6919;52.344;14.518;2023-11-21T13:28:33;3.70;;;2.50;;
13693;SDS011;6919;52.344;14.518;2023-11-21T13:31:03;3.80;;;3.10;;
13693;SDS011;6919;52.344;14.518;2023-11-21T13:33:47;4.30;;;3.43;;
13693;SDS011;6919;52.344;14.518;2023-11-21T13:36:23;4.30;;;3.20;;
13693;SDS011;6919;52.344;14.518;2023-11-21T13:38:56;3.90;;;2.77;;
13693;SDS011;6919;52.344;14.518;2023-11-21T13:41:30;4.17;;;3.17;;
13693;SDS011;6919;52.344;14.518;2023-11-21T13:43:59;6.43;;;3.70;;
13693;SDS011;6919;52.344;14.518;2023-11-21T13:46:41;8.30;;;4.00;;
13693;SDS011;6919;52.344;14.518;2023-11-21T13:49:10;4.40;;;3.23;;
13693;SDS011;6919;52.344;14.518;2023-11-21T13:51:43;5.50;;;3.53;;
13693;SDS011;6919;52.344;14.518;2023-11-21T13:54:14;3.73;;;2.80;;
13693;SDS011;6919;52.344;14.518;2023-11-21T13:56:43;6.27;;;3.33;;
13693;SDS011;6919;52.344;14.518;2023-11-21T13:59:16;4.20;;;3.17;;
13693;SDS011;6919;52.344;14.518;2023-11-21T14:01:49;3.97;;;2.93;;
13693;SDS011;6919;52.344;14.518;2023-11-21T14:04:23;4.90;;;3.30;;
13693;SDS011;6919;52.344;14.518;2023-11-21T14:07:22;3.87;;;3.30;;
13693;SDS011;6919;52.344;14.518;2023-11-21T14:10:01;4.93;;;3.20;;
13693;SDS011;6919;52.344;14.518;2023-11-21T14:12:31;3.70;;;3.03;;
13693;SDS011;6919;52.344;14.518;2023-11-21T14:15:05;5.87;;;3.00;;
13693;SDS011;6919;52.344;14.518;2023-11-21T14:17:36;3.80;;;3.10;;
13693;SDS011;6919;52.344;14.518;2023-11-21T14:20:08;4.83;;;3.77;;
13693;SDS011;6919;52.344;14.518;2023-11-21T14:22:44;5.43;;;3.50;;
13693;SDS011;6919;52.344;14.518;2023-11-21T14:25:13;6.27;;;4.50;;
13693;SDS011;6919;52.344;14.518;2023-11-21T14:27:43;7.87;;;4.17;;
13693;SDS011;6919;52.344;14.518;2023-11-21T14:30:12;8.10;;;3.30;;
13693;SDS011;6919;52.344;14.518;2023-11-21T14:32:44;4.63;;;3.37;;
13693;SDS011;6919;52.344;14.518;2023-11-21T14:35:13;4.27;;;3.17;;
13693;SDS011;6919;52.344;14.518;2023-11-21T14:37:43;4.40;;;2.57;;
13693;SDS011;6919;52.344;14.518;2023-11-21T14:40:13;4.20;;;2.90;;
13693;SDS011;6919;52.344;14.518;2023-11-21T14:42:47;5.07;;;2.50;;
13693;SDS011;6919;52.344;14.518;2023-11-21T14:45:18;3.87;;;2.60;;
13693;SDS011;6919;52.344;14.518;2023-11-21T14:47:47;4.40;;;3.00;;
13693;SDS011;6919;52.344;14.518;2023-11-21T14:50:25;4.80;;;2.73;;
13693;SDS011;6919;52.344;14.518;2023-11-21T14:53:13;6.60;;;3.00;;
13693;SDS011;6919;52.344;14.518;2023-11-21T14:55:42;4.93;;;3.80;;
13693;SDS011;6919;52.344;14.518;2023-11-21T14:58:23;5.47;;;4.40;;